Time;durP1;ratioP1;P1;durP2;ratioP2;P2;SDS_P1;SDS_P2;PMS_P1;PMS_P2;Temp;Humidity;BMP_temperature;BMP_pressure;BME280_temperature;BME280_humidity;BME280_pressure;Samples;Min_cycle;Max_cycle;Signal;HPM_P1;HPM_P2
2024/02/28 00:00:53;;;;;;;20.60;13.80;;;6.20;99.90;;;;;;2050242;28;20222;-70
2024/02/28 00:01:54;;;;;;;23.90;13.70;;;6.20;99.90;;;;;;2046052;28;20219;-70
2024/02/28 00:02:54;;;;;;;21.67;12.20;;;6.30;99.90;;;;;;2052997;28;20179;-69
2024/02/28 00:03:55;;;;;;;23.10;13.87;;;6.30;99.90;;;;;;2050394;28;20595;-69
2024/02/28 00:04:58;;;;;;;20.17;13.23;;;6.30;99.90;;;;;;2038007;28;20200;-69
2024/02/28 00:05:59;;;;;;;21.30;12.27;;;6.30;99.90;;;;;;2054021;28;20273;-71
2024/02/28 00:07:00;;;;;;;17.93;11.57;;;6.30;99.90;;;;;;2059920;28;20191;-70
2024/02/28 00:08:00;;;;;;;21.50;11.87;;;6.30;99.90;;;;;;2049750;28;20256;-70
2024/02/28 00:09:01;;;;;;;20.23;12.50;;;6.30;99.90;;;;;;2044419;28;20187;-70
2024/02/28 00:10:02;;;;;;;23.23;13.60;;;6.30;99.90;;;;;;2040843;28;20207;-70
2024/02/28 00:11:03;;;;;;;17.50;11.27;;;6.30;99.90;;;;;;2050897;28;20580;-71
2024/02/28 00:12:04;;;;;;;24.37;14.73;;;6.30;99.90;;;;;;2053543;28;20605;-71
2024/02/28 00:13:04;;;;;;;19.57;12.80;;;6.30;99.90;;;;;;2058377;28;20287;-69
2024/02/28 00:14:05;;;;;;;19.90;11.50;;;6.20;99.90;;;;;;2053645;28;20647;-69
2024/02/28 00:15:10;;;;;;;20.67;12.17;;;6.20;99.90;;;;;;2052705;28;20238;-70
2024/02/28 00:16:11;;;;;;;21.85;13.23;;;6.30;99.90;;;;;;2052781;28;20231;-70
2024/02/28 00:17:13;;;;;;;19.08;11.32;;;6.30;99.90;;;;;;2057474;28;20233;-70
2024/02/28 00:18:14;;;;;;;25.35;14.13;;;6.30;99.90;;;;;;2058854;28;20234;-70
2024/02/28 00:19:15;;;;;;;21.80;12.23;;;6.30;99.90;;;;;;2063074;28;20268;-69
2024/02/28 00:20:15;;;;;;;20.90;12.67;;;6.30;99.90;;;;;;2054648;28;20226;-70
2024/02/28 00:21:16;;;;;;;18.50;11.83;;;6.30;99.90;;;;;;2057791;28;20277;-70
2024/02/28 00:22:17;;;;;;;22.93;14.23;;;6.30;99.90;;;;;;2054185;28;20222;-70
2024/02/28 00:23:18;;;;;;;19.53;12.10;;;6.40;99.90;;;;;;2059360;28;20227;-69
2024/02/28 00:24:18;;;;;;;19.63;11.83;;;6.40;99.90;;;;;;2054509;28;20248;-69
2024/02/28 00:25:19;;;;;;;19.10;12.50;;;6.50;99.90;;;;;;2053430;28;20338;-70
2024/02/28 00:26:19;;;;;;;19.67;12.17;;;6.50;99.90;;;;;;2053270;28;20811;-69
2024/02/28 00:27:21;;;;;;;19.97;12.17;;;6.50;99.90;;;;;;2056476;28;20378;-69
2024/02/28 00:28:21;;;;;;;21.42;13.60;;;6.40;99.90;;;;;;2057832;28;20715;-70
2024/02/28 00:29:22;;;;;;;19.33;12.33;;;6.40;99.90;;;;;;2057821;28;20230;-70
2024/02/28 00:30:23;;;;;;;20.90;12.87;;;6.40;99.90;;;;;;2062261;28;20269;-70
2024/02/28 00:31:24;;;;;;;20.23;12.17;;;6.30;99.90;;;;;;2057098;28;20800;-71
2024/02/28 00:32:24;;;;;;;18.77;11.88;;;6.30;99.90;;;;;;2047695;28;20658;-71
2024/02/28 00:33:25;;;;;;;19.57;12.00;;;6.30;99.90;;;;;;2059150;28;20230;-70
2024/02/28 00:34:26;;;;;;;20.97;11.40;;;6.40;99.90;;;;;;2056565;28;20692;-70
2024/02/28 00:35:26;;;;;;;21.80;12.40;;;6.40;99.90;;;;;;2052840;28;20726;-70
2024/02/28 00:36:27;;;;;;;20.67;13.50;;;6.40;99.90;;;;;;2058621;28;20238;-72
2024/02/28 00:37:28;;;;;;;18.40;11.67;;;6.50;99.90;;;;;;2055598;28;20259;-71
2024/02/28 00:38:28;;;;;;;20.90;12.70;;;6.50;99.90;;;;;;2061066;28;20230;-71
2024/02/28 00:39:29;;;;;;;19.03;11.97;;;6.60;99.90;;;;;;2061369;28;20293;-70
2024/02/28 00:40:30;;;;;;;23.37;11.97;;;6.60;99.90;;;;;;2056822;28;20330;-70
2024/02/28 00:41:31;;;;;;;20.83;12.07;;;6.60;99.90;;;;;;2049795;28;20231;-71
2024/02/28 00:42:31;;;;;;;21.13;12.47;;;6.50;99.90;;;;;;2054753;28;20226;-71
2024/02/28 00:43:32;;;;;;;22.13;13.47;;;6.50;99.90;;;;;;2054620;28;20234;-71
2024/02/28 00:44:33;;;;;;;23.50;14.70;;;6.60;99.90;;;;;;2055318;28;20309;-71
2024/02/28 00:45:34;;;;;;;21.48;12.75;;;6.60;99.90;;;;;;2051616;28;20587;-70
2024/02/28 00:46:34;;;;;;;19.13;12.20;;;6.50;99.90;;;;;;2053884;28;20245;-71
2024/02/28 00:47:35;;;;;;;20.50;12.23;;;6.50;99.90;;;;;;2046449;28;20263;-71
2024/02/28 00:48:36;;;;;;;20.17;11.90;;;6.50;99.90;;;;;;2053839;28;20686;-71
2024/02/28 00:49:37;;;;;;;19.77;12.23;;;6.60;99.90;;;;;;2063539;28;20278;-71
2024/02/28 00:50:38;;;;;;;20.92;13.48;;;6.50;99.90;;;;;;2063004;28;20233;-70
2024/02/28 00:51:39;;;;;;;18.50;12.03;;;6.50;99.90;;;;;;2063065;28;20261;-71
2024/02/28 00:52:40;;;;;;;20.93;11.93;;;6.50;99.90;;;;;;2072009;28;20647;-71
2024/02/28 00:53:42;;;;;;;19.20;11.35;;;6.60;99.90;;;;;;2071196;28;20244;-70
2024/02/28 00:54:43;;;;;;;21.92;12.75;;;6.60;99.90;;;;;;2060926;28;20257;-69
2024/02/28 00:55:44;;;;;;;22.03;13.30;;;6.60;99.90;;;;;;2061895;28;20242;-71
2024/02/28 00:56:44;;;;;;;22.93;14.77;;;6.60;99.90;;;;;;2070508;28;20243;-71
2024/02/28 00:57:45;;;;;;;18.97;10.63;;;6.70;99.90;;;;;;2063667;28;20723;-71
2024/02/28 00:58:46;;;;;;;22.87;12.10;;;6.70;99.90;;;;;;2054485;28;20277;-70
2024/02/28 00:59:46;;;;;;;20.90;12.87;;;6.60;99.90;;;;;;2063706;28;20234;-70
2024/02/28 01:00:50;;;;;;;22.23;11.73;;;6.70;99.90;;;;;;2062837;28;20679;-71
2024/02/28 01:01:51;;;;;;;19.02;12.05;;;6.70;99.90;;;;;;2062595;28;20286;-70
2024/02/28 01:02:52;;;;;;;19.65;11.85;;;6.60;99.90;;;;;;2063267;28;20197;-70
2024/02/28 01:03:52;;;;;;;19.73;12.53;;;6.60;99.90;;;;;;2062915;28;20188;-70
2024/02/28 01:04:53;;;;;;;20.10;12.00;;;6.60;99.90;;;;;;2053929;28;20183;-70
2024/02/28 01:05:54;;;;;;;22.00;12.50;;;6.60;99.90;;;;;;2054488;28;20254;-70
2024/02/28 01:06:54;;;;;;;19.57;11.60;;;6.60;99.90;;;;;;2055095;28;20278;-70
2024/02/28 01:07:55;;;;;;;19.20;12.73;;;6.60;99.90;;;;;;2054923;28;20584;-70
2024/02/28 01:08:56;;;;;;;20.33;11.90;;;6.60;99.90;;;;;;2062553;28;20194;-70
2024/02/28 01:09:56;;;;;;;20.10;11.77;;;6.60;99.90;;;;;;2062344;28;20217;-70
2024/02/28 01:10:58;;;;;;;16.73;10.73;;;6.60;99.90;;;;;;2062735;28;20269;-70
2024/02/28 01:11:59;;;;;;;25.45;12.95;;;6.50;99.90;;;;;;2063692;28;20194;-69
2024/02/28 01:13:00;;;;;;;20.70;12.10;;;6.50;99.90;;;;;;2063480;28;20885;-69
2024/02/28 01:14:01;;;;;;;22.97;13.83;;;6.50;99.90;;;;;;2064123;28;20190;-70
2024/02/28 01:15:01;;;;;;;20.57;13.03;;;6.50;99.90;;;;;;2062044;28;20190;-70
2024/02/28 01:16:02;;;;;;;21.20;11.93;;;6.50;99.90;;;;;;2062710;28;20285;-70
2024/02/28 01:17:03;;;;;;;21.77;13.63;;;6.60;99.90;;;;;;2061043;28;20187;-70
2024/02/28 01:18:04;;;;;;;23.17;13.37;;;6.60;99.90;;;;;;2061090;28;20455;-70
2024/02/28 01:19:04;;;;;;;18.23;11.00;;;6.50;99.90;;;;;;2061589;28;20269;-70
2024/02/28 01:20:10;;;;;;;19.77;12.57;;;6.50;99.90;;;;;;2053449;28;20196;-69
2024/02/28 01:21:10;;;;;;;20.60;11.88;;;6.50;99.90;;;;;;2059672;28;20291;-70
2024/02/28 01:22:11;;;;;;;19.27;12.47;;;6.50;99.90;;;;;;2053890;28;20223;-70
2024/02/28 01:23:12;;;;;;;23.00;13.77;;;6.50;99.90;;;;;;2054674;28;20233;-70
2024/02/28 01:24:12;;;;;;;23.73;13.60;;;6.50;99.90;;;;;;2042615;28;20227;-69
2024/02/28 01:25:13;;;;;;;22.97;14.07;;;6.40;99.90;;;;;;2046663;28;20227;-70
2024/02/28 01:26:14;;;;;;;23.07;12.80;;;6.40;99.90;;;;;;2054838;28;20270;-71
2024/02/28 01:27:15;;;;;;;22.08;13.27;;;6.40;99.90;;;;;;2063239;28;20234;-71
2024/02/28 01:28:15;;;;;;;20.60;12.30;;;6.40;99.90;;;;;;2059641;28;20250;-70
2024/02/28 01:29:16;;;;;;;23.03;14.53;;;6.20;99.90;;;;;;2054562;28;20275;-72
2024/02/28 01:30:17;;;;;;;19.13;12.27;;;6.10;99.90;;;;;;2058865;28;20791;-70
2024/02/28 01:31:17;;;;;;;20.70;13.37;;;6.10;99.90;;;;;;2055210;28;20229;-71
2024/02/28 01:32:18;;;;;;;22.57;13.30;;;6.00;99.90;;;;;;2059463;28;20607;-70
2024/02/28 01:33:19;;;;;;;23.13;12.07;;;6.00;99.90;;;;;;2051957;28;20238;-70
2024/02/28 01:34:20;;;;;;;19.83;12.23;;;6.00;99.90;;;;;;2056451;28;20231;-71
2024/02/28 01:35:20;;;;;;;23.03;14.17;;;6.00;99.90;;;;;;2059942;28;20235;-71
2024/02/28 01:36:21;;;;;;;22.73;13.27;;;6.00;99.90;;;;;;2054814;28;20804;-71
2024/02/28 01:37:22;;;;;;;23.43;13.40;;;5.90;99.90;;;;;;2050202;28;20302;-70
2024/02/28 01:38:22;;;;;;;20.40;11.93;;;5.90;99.90;;;;;;2047246;28;20239;-71
2024/02/28 01:39:23;;;;;;;23.03;13.33;;;5.90;99.90;;;;;;2047061;28;20296;-71
2024/02/28 01:40:24;;;;;;;20.77;13.07;;;6.00;99.90;;;;;;2047767;28;20232;-72
2024/02/28 01:41:24;;;;;;;21.77;12.80;;;6.00;99.90;;;;;;2047195;28;20231;-70
2024/02/28 01:42:25;;;;;;;21.90;12.77;;;6.10;99.90;;;;;;2050794;28;20648;-70
2024/02/28 01:43:26;;;;;;;19.17;12.20;;;6.20;99.90;;;;;;2053254;28;20226;-71
2024/02/28 01:44:27;;;;;;;22.33;12.57;;;6.20;99.90;;;;;;2061713;28;20276;-71
2024/02/28 01:45:28;;;;;;;19.48;12.95;;;6.20;99.90;;;;;;2058776;28;20773;-70
2024/02/28 01:46:30;;;;;;;21.23;12.87;;;6.20;99.90;;;;;;2055174;28;20231;-71
2024/02/28 01:47:31;;;;;;;20.15;11.75;;;6.20;99.90;;;;;;2054561;28;20226;-70
2024/02/28 01:48:32;;;;;;;19.53;12.10;;;6.30;99.90;;;;;;2060309;28;20233;-71
2024/02/28 01:49:33;;;;;;;22.13;12.80;;;6.20;99.90;;;;;;2062566;28;20288;-69
2024/02/28 01:50:34;;;;;;;20.97;13.10;;;6.20;99.90;;;;;;2054489;28;20281;-70
2024/02/28 01:51:35;;;;;;;24.03;13.97;;;6.20;99.90;;;;;;2054107;28;20432;-70
2024/02/28 01:52:37;;;;;;;20.43;12.17;;;6.10;99.90;;;;;;2055079;28;20227;-72
2024/02/28 01:53:38;;;;;;;20.45;12.63;;;6.20;99.90;;;;;;2046587;28;20270;-70
2024/02/28 01:54:39;;;;;;;20.87;12.20;;;6.20;99.90;;;;;;2054189;28;20226;-69
2024/02/28 01:55:40;;;;;;;22.48;12.82;;;6.20;99.90;;;;;;2055176;28;20285;-70
2024/02/28 01:56:41;;;;;;;21.50;12.45;;;6.20;99.90;;;;;;2054179;28;20233;-71
2024/02/28 01:57:42;;;;;;;22.92;13.02;;;6.20;99.90;;;;;;2054346;28;20239;-71
2024/02/28 01:58:48;;;;;;;18.17;12.20;;;6.10;99.90;;;;;;2061424;28;20268;-71
2024/02/28 01:59:48;;;;;;;23.13;11.50;;;6.10;99.90;;;;;;2054595;28;20224;-71
2024/02/28 02:00:49;;;;;;;19.40;10.70;;;6.20;99.90;;;;;;2051469;28;20247;-71
2024/02/28 02:01:50;;;;;;;23.08;13.05;;;6.20;99.90;;;;;;2052195;28;20226;-70
2024/02/28 02:02:51;;;;;;;21.38;13.00;;;6.20;99.90;;;;;;2053447;28;20183;-70
2024/02/28 02:03:52;;;;;;;23.50;13.10;;;6.10;99.90;;;;;;2045944;28;20191;-70
2024/02/28 02:04:54;;;;;;;18.70;11.20;;;6.10;99.90;;;;;;2053441;28;20212;-71
2024/02/28 02:05:55;;;;;;;23.35;12.60;;;6.10;99.90;;;;;;2059553;28;20546;-71
2024/02/28 02:06:58;;;;;;;19.60;12.35;;;6.20;99.90;;;;;;2046478;28;20199;-71
2024/02/28 02:07:59;;;;;;;22.20;14.00;;;6.10;99.90;;;;;;2053430;28;20215;-71
2024/02/28 02:09:01;;;;;;;19.25;12.63;;;6.20;99.90;;;;;;2053767;28;20673;-71
2024/02/28 02:10:02;;;;;;;20.23;11.10;;;6.20;99.90;;;;;;2045595;28;20187;-70
2024/02/28 02:11:04;;;;;;;17.70;10.47;;;6.20;99.90;;;;;;2052573;28;20183;-71
2024/02/28 02:12:04;;;;;;;21.80;11.25;;;6.30;99.90;;;;;;2051316;28;20196;-71
2024/02/28 02:13:06;;;;;;;20.63;11.53;;;6.20;99.90;;;;;;2051809;28;20202;-71
2024/02/28 02:14:07;;;;;;;21.80;13.40;;;6.30;99.90;;;;;;2048165;28;20199;-70
2024/02/28 02:15:08;;;;;;;21.13;12.07;;;6.30;99.90;;;;;;2045358;28;20192;-72
2024/02/28 02:16:09;;;;;;;18.53;11.70;;;6.30;99.90;;;;;;2053004;28;20207;-70
2024/02/28 02:17:09;;;;;;;21.50;12.63;;;6.20;99.90;;;;;;2060307;28;20617;-70
2024/02/28 02:18:10;;;;;;;19.00;11.93;;;6.30;99.90;;;;;;2060434;28;20245;-70
2024/02/28 02:19:11;;;;;;;19.80;12.13;;;6.30;99.90;;;;;;2051020;28;20231;-70
2024/02/28 02:20:14;;;;;;;20.48;11.65;;;6.30;99.90;;;;;;2057416;28;20318;-70
2024/02/28 02:21:23;;;;;;;18.90;11.60;;;6.20;99.90;;;;;;2053962;28;20235;-70
2024/02/28 02:22:34;;;;;;;19.50;12.00;;;6.20;99.90;;;;;;2049668;28;20335;-71
2024/02/28 02:23:35;;;;;;;22.75;13.60;;;6.20;99.90;;;;;;2047042;28;20649;-70
2024/02/28 02:24:36;;;;;;;18.38;11.57;;;6.20;99.90;;;;;;2049436;28;20783;-71
2024/02/28 02:25:47;;;;;;;20.13;11.70;;;6.20;99.90;;;;;;2057078;28;20276;-71
2024/02/28 02:26:50;;;;;;;18.23;12.25;;;6.30;99.90;;;;;;2053214;28;20886;-70
2024/02/28 02:27:51;;;;;;;21.23;11.90;;;6.30;99.90;;;;;;2044532;28;20330;-70
2024/02/28 02:28:51;;;;;;;19.17;12.43;;;6.30;99.90;;;;;;2053754;28;20284;-70
2024/02/28 02:29:52;;;;;;;22.03;13.27;;;6.30;99.90;;;;;;2050307;28;20635;-71
2024/02/28 02:30:53;;;;;;;22.50;12.53;;;6.30;99.90;;;;;;2052908;28;20349;-70
2024/02/28 02:31:53;;;;;;;19.63;11.77;;;6.20;99.90;;;;;;2059371;28;20269;-71
2024/02/28 02:32:54;;;;;;;18.80;12.17;;;6.20;99.90;;;;;;2061081;28;20370;-70
2024/02/28 02:33:55;;;;;;;18.73;11.15;;;6.30;99.90;;;;;;2053573;28;20189;-70
2024/02/28 02:34:56;;;;;;;19.57;11.43;;;6.30;99.90;;;;;;2049399;28;20219;-70
2024/02/28 02:35:57;;;;;;;16.53;11.57;;;6.30;99.90;;;;;;2060890;28;20510;-70
2024/02/28 02:36:58;;;;;;;19.23;10.97;;;6.30;99.90;;;;;;2054343;28;20274;-71
2024/02/28 02:37:58;;;;;;;21.10;11.83;;;6.30;99.90;;;;;;2046945;28;20207;-70
2024/02/28 02:38:59;;;;;;;18.53;10.67;;;6.30;99.90;;;;;;2058481;28;20209;-70
2024/02/28 02:40:00;;;;;;;23.53;13.13;;;6.30;99.90;;;;;;2052358;28;20187;-69
2024/02/28 02:41:01;;;;;;;22.30;12.88;;;6.40;99.90;;;;;;2058859;28;20186;-70
2024/02/28 02:42:02;;;;;;;21.27;11.80;;;6.30;99.90;;;;;;2052644;28;20187;-70
2024/02/28 02:43:03;;;;;;;22.13;13.67;;;6.30;99.90;;;;;;2060526;28;20186;-70
2024/02/28 02:44:03;;;;;;;21.97;13.13;;;6.30;99.90;;;;;;2049554;28;20266;-70
2024/02/28 02:45:05;;;;;;;21.33;12.97;;;6.40;99.90;;;;;;2051314;28;20179;-71
2024/02/28 02:46:05;;;;;;;22.90;13.35;;;6.40;99.90;;;;;;2045822;28;20184;-71
2024/02/28 02:47:06;;;;;;;21.63;12.73;;;6.30;99.90;;;;;;2050798;28;20179;-71
2024/02/28 02:48:07;;;;;;;24.23;14.67;;;6.30;99.90;;;;;;2045690;28;20239;-70
2024/02/28 02:49:07;;;;;;;24.37;13.07;;;6.30;99.90;;;;;;2054804;28;20282;-71
2024/02/28 02:50:08;;;;;;;22.60;11.67;;;6.30;99.90;;;;;;2052513;28;20187;-71
2024/02/28 02:51:09;;;;;;;24.23;13.70;;;6.30;99.90;;;;;;2058387;28;22687;-70
2024/02/28 02:52:09;;;;;;;22.73;11.83;;;6.30;99.90;;;;;;2062043;28;20489;-70
2024/02/28 02:53:11;;;;;;;23.50;13.93;;;6.30;99.90;;;;;;2051928;28;20253;-70
2024/02/28 02:54:11;;;;;;;19.15;11.32;;;6.40;99.90;;;;;;2045842;28;20226;-71
2024/02/28 02:55:12;;;;;;;18.93;11.40;;;6.40;99.90;;;;;;2045798;28;20239;-70
2024/02/28 02:56:13;;;;;;;24.07;12.33;;;6.40;99.90;;;;;;2056337;28;20226;-71
2024/02/28 02:57:13;;;;;;;23.30;13.50;;;6.40;99.90;;;;;;2045267;28;20227;-71
2024/02/28 02:58:14;;;;;;;23.80;13.33;;;6.40;99.90;;;;;;2047420;28;20742;-71
2024/02/28 02:59:15;;;;;;;22.07;12.80;;;6.40;99.90;;;;;;2049269;28;20298;-71
2024/02/28 03:00:16;;;;;;;20.33;12.67;;;6.30;99.90;;;;;;2049332;28;20231;-71
2024/02/28 03:01:16;;;;;;;22.50;12.13;;;6.30;99.90;;;;;;2052517;28;20234;-70
2024/02/28 03:02:17;;;;;;;21.67;12.97;;;6.30;99.90;;;;;;2057873;28;20235;-71
2024/02/28 03:03:18;;;;;;;19.93;12.00;;;6.30;99.90;;;;;;2054040;28;20250;-71
2024/02/28 03:04:18;;;;;;;21.13;12.70;;;6.30;99.90;;;;;;2052595;28;20227;-71
2024/02/28 03:05:19;;;;;;;22.97;13.40;;;6.40;99.90;;;;;;2049654;28;20238;-71
2024/02/28 03:06:20;;;;;;;27.67;14.87;;;6.40;99.90;;;;;;2045999;28;20231;-71
2024/02/28 03:07:21;;;;;;;22.70;12.88;;;6.30;99.90;;;;;;2049313;28;20366;-72
2024/02/28 03:08:22;;;;;;;20.48;11.77;;;6.30;99.90;;;;;;2053490;28;20322;-71
2024/02/28 03:09:24;;;;;;;20.17;11.37;;;6.30;99.90;;;;;;2056439;28;20725;-70
2024/02/28 03:10:25;;;;;;;24.63;13.45;;;6.40;99.90;;;;;;2047868;28;20707;-71
2024/02/28 03:11:26;;;;;;;23.33;12.87;;;6.40;99.90;;;;;;2049321;28;20266;-71
2024/02/28 03:12:26;;;;;;;23.53;13.63;;;6.40;99.90;;;;;;2053327;28;20263;-71
2024/02/28 03:13:28;;;;;;;23.73;12.87;;;6.30;99.90;;;;;;2053493;28;20708;-71
2024/02/28 03:14:29;;;;;;;19.33;12.45;;;6.30;99.90;;;;;;2066256;28;20225;-71
2024/02/28 03:15:29;;;;;;;21.73;12.83;;;6.30;99.90;;;;;;2057324;28;20321;-69
2024/02/28 03:16:30;;;;;;;22.93;13.60;;;6.30;99.90;;;;;;2051685;28;20321;-71
2024/02/28 03:17:31;;;;;;;24.33;13.90;;;6.30;99.90;;;;;;2045764;28;20236;-70
2024/02/28 03:18:31;;;;;;;21.47;13.57;;;6.30;99.90;;;;;;2055140;28;20238;-70
2024/02/28 03:19:32;;;;;;;24.17;13.30;;;6.20;99.90;;;;;;2053114;28;20289;-71
2024/02/28 03:20:34;;;;;;;21.30;12.20;;;6.20;99.90;;;;;;2045079;28;20223;-70
2024/02/28 03:21:34;;;;;;;24.30;12.38;;;6.10;99.90;;;;;;2044548;28;20343;-70
2024/02/28 03:22:35;;;;;;;18.03;11.20;;;6.10;99.90;;;;;;2052021;28;20237;-70
2024/02/28 03:23:36;;;;;;;19.90;12.20;;;6.10;99.90;;;;;;2052015;28;20242;-71
2024/02/28 03:24:37;;;;;;;21.33;11.87;;;6.10;99.90;;;;;;2049068;28;20293;-70
2024/02/28 03:25:37;;;;;;;21.42;13.07;;;6.10;99.90;;;;;;2052932;28;20234;-71
2024/02/28 03:26:38;;;;;;;25.90;14.27;;;6.10;99.90;;;;;;2037048;29;20224;-70
2024/02/28 03:27:39;;;;;;;23.93;13.03;;;6.20;99.90;;;;;;2043372;28;20219;-71
2024/02/28 03:28:39;;;;;;;20.13;13.60;;;6.20;99.90;;;;;;2044937;28;20274;-71
2024/02/28 03:29:40;;;;;;;22.33;12.47;;;6.20;99.90;;;;;;2053092;28;20276;-71
2024/02/28 03:30:41;;;;;;;23.10;13.40;;;6.10;99.90;;;;;;2046187;28;20236;-70
2024/02/28 03:31:42;;;;;;;21.50;13.35;;;6.20;99.90;;;;;;2044030;28;20274;-71
2024/02/28 03:32:43;;;;;;;19.80;12.50;;;6.20;99.90;;;;;;2060231;28;20324;-71
2024/02/28 03:33:43;;;;;;;19.57;11.57;;;6.30;99.90;;;;;;2053189;28;20636;-71
2024/02/28 03:34:44;;;;;;;19.10;11.17;;;6.30;99.90;;;;;;2046033;28;20227;-70
2024/02/28 03:35:45;;;;;;;18.93;11.93;;;6.30;99.90;;;;;;2053001;28;20241;-71
2024/02/28 03:36:46;;;;;;;22.90;13.67;;;6.30;99.90;;;;;;2052140;28;20239;-70
2024/02/28 03:37:46;;;;;;;20.67;12.43;;;6.10;99.90;;;;;;2050673;28;20304;-72
2024/02/28 03:38:47;;;;;;;21.37;13.03;;;6.10;99.90;;;;;;2052923;28;20548;-69
2024/02/28 03:39:48;;;;;;;22.57;13.23;;;6.20;99.90;;;;;;2052842;28;20230;-70
2024/02/28 03:40:48;;;;;;;20.53;12.10;;;6.20;99.90;;;;;;2050761;28;20365;-70
2024/02/28 03:41:49;;;;;;;18.73;11.87;;;6.20;99.90;;;;;;2061236;28;21947;-69
2024/02/28 03:42:50;;;;;;;19.90;11.57;;;6.20;99.90;;;;;;2051301;28;20957;-69
2024/02/28 03:43:50;;;;;;;21.73;12.57;;;6.20;99.90;;;;;;2047092;28;20186;-69
2024/02/28 03:44:51;;;;;;;18.87;11.43;;;6.20;99.90;;;;;;2042184;28;20211;-69
2024/02/28 03:45:51;;;;;;;20.67;12.97;;;6.10;99.90;;;;;;2044781;28;20206;-70
2024/02/28 03:46:53;;;;;;;23.90;14.33;;;6.20;99.90;;;;;;2049354;28;20243;-71
2024/02/28 03:47:54;;;;;;;22.42;12.13;;;6.20;99.90;;;;;;2056072;28;20202;-70
2024/02/28 03:48:55;;;;;;;21.10;12.83;;;6.20;99.90;;;;;;2060898;28;20188;-70
2024/02/28 03:49:57;;;;;;;21.93;13.60;;;6.30;99.90;;;;;;2047563;28;20197;-69
2024/02/28 03:50:57;;;;;;;20.10;12.02;;;6.20;99.90;;;;;;2056919;28;20193;-70
2024/02/28 03:51:58;;;;;;;23.17;13.13;;;6.10;99.90;;;;;;2053046;28;20272;-72
2024/02/28 03:52:59;;;;;;;24.07;14.10;;;6.10;99.90;;;;;;2049324;28;20238;-70
2024/02/28 03:54:00;;;;;;;20.30;10.77;;;6.20;99.90;;;;;;2050651;28;20202;-71
2024/02/28 03:55:01;;;;;;;20.00;11.63;;;6.20;99.90;;;;;;2058804;28;20692;-69
2024/02/28 03:56:02;;;;;;;18.90;11.37;;;6.20;99.90;;;;;;2055143;28;20191;-70
2024/02/28 03:57:03;;;;;;;21.80;12.55;;;6.20;99.90;;;;;;2044463;28;20180;-70
2024/02/28 03:58:06;;;;;;;18.63;11.73;;;6.10;99.90;;;;;;2039647;28;20300;-71
2024/02/28 03:59:07;;;;;;;20.52;11.57;;;6.10;99.90;;;;;;2058605;28;20187;-71
2024/02/28 04:00:09;;;;;;;20.07;11.60;;;6.10;99.90;;;;;;2047445;28;20670;-71
2024/02/28 04:01:09;;;;;;;20.95;11.52;;;6.00;99.90;;;;;;2050777;28;20458;-70
2024/02/28 04:02:10;;;;;;;17.07;11.27;;;6.00;99.90;;;;;;2052595;28;20805;-71
2024/02/28 04:03:11;;;;;;;18.03;11.70;;;6.00;99.90;;;;;;2050423;28;20234;-70
2024/02/28 04:04:11;;;;;;;19.77;10.90;;;5.90;99.90;;;;;;2053726;28;20234;-70
2024/02/28 04:05:12;;;;;;;18.87;10.47;;;5.80;99.90;;;;;;2054507;28;20262;-71
2024/02/28 04:06:13;;;;;;;23.60;13.03;;;5.80;99.90;;;;;;2049320;28;20261;-72
2024/02/28 04:07:13;;;;;;;17.17;10.40;;;5.80;99.90;;;;;;2044961;28;20233;-70
2024/02/28 04:08:14;;;;;;;17.33;10.70;;;5.90;99.90;;;;;;2057870;28;20367;-69
2024/02/28 04:09:15;;;;;;;19.63;11.63;;;5.90;99.90;;;;;;2045537;28;20227;-69
2024/02/28 04:10:16;;;;;;;17.67;10.40;;;5.90;99.90;;;;;;2036177;29;20701;-71
2024/02/28 04:11:16;;;;;;;18.07;10.83;;;5.90;99.90;;;;;;2058331;28;20280;-71
2024/02/28 04:12:17;;;;;;;18.00;11.70;;;5.90;99.90;;;;;;2058502;28;20318;-71
2024/02/28 04:13:18;;;;;;;18.03;11.60;;;5.90;99.90;;;;;;2059128;28;20724;-69
2024/02/28 04:14:18;;;;;;;18.50;11.10;;;6.00;99.90;;;;;;2044693;28;20331;-71
2024/02/28 04:15:19;;;;;;;18.63;10.57;;;6.00;99.90;;;;;;2041046;29;20231;-72
2024/02/28 04:16:20;;;;;;;21.60;11.37;;;6.00;99.90;;;;;;2044051;28;20694;-69
2024/02/28 04:17:20;;;;;;;15.93;10.00;;;6.00;99.90;;;;;;2046246;28;20231;-69
2024/02/28 04:18:21;;;;;;;16.33;10.27;;;6.00;99.90;;;;;;2054273;28;20227;-70
2024/02/28 04:19:22;;;;;;;16.10;9.83;;;6.10;99.90;;;;;;2054641;28;20284;-69
2024/02/28 04:20:22;;;;;;;18.33;11.33;;;6.20;99.90;;;;;;2055816;28;20756;-70
2024/02/28 04:21:23;;;;;;;16.33;10.33;;;6.20;99.90;;;;;;2057843;28;20234;-71
2024/02/28 04:22:24;;;;;;;15.27;10.00;;;6.20;99.90;;;;;;2054248;28;20237;-69
2024/02/28 04:23:24;;;;;;;13.87;8.53;;;6.20;99.90;;;;;;2059040;28;20230;-70
2024/02/28 04:24:25;;;;;;;14.83;9.83;;;6.20;99.90;;;;;;2047483;28;20888;-70
2024/02/28 04:25:26;;;;;;;15.53;9.67;;;6.20;99.90;;;;;;2039869;29;20227;-71
2024/02/28 04:26:26;;;;;;;12.50;8.40;;;6.20;99.90;;;;;;2058369;28;20226;-72
2024/02/28 04:27:27;;;;;;;19.13;10.43;;;6.10;99.90;;;;;;2057219;28;20226;-72
2024/02/28 04:28:28;;;;;;;16.67;9.87;;;6.10;99.90;;;;;;2056056;28;20244;-72
2024/02/28 04:29:29;;;;;;;15.00;8.77;;;6.00;99.90;;;;;;2057577;28;20238;-70
2024/02/28 04:30:29;;;;;;;14.93;9.13;;;6.00;99.90;;;;;;2055735;28;20234;-71
2024/02/28 04:31:31;;;;;;;16.57;11.13;;;5.90;99.90;;;;;;2057288;28;20262;-70
2024/02/28 04:32:32;;;;;;;14.95;8.95;;;5.90;99.90;;;;;;2055771;28;20309;-70
2024/02/28 04:33:32;;;;;;;16.57;10.17;;;5.80;99.90;;;;;;2054612;28;20226;-71
2024/02/28 04:34:33;;;;;;;16.57;9.70;;;5.80;99.90;;;;;;2062823;28;20230;-71
2024/02/28 04:35:34;;;;;;;15.23;9.13;;;5.90;99.90;;;;;;2061533;28;20238;-70
2024/02/28 04:36:34;;;;;;;16.47;9.77;;;5.80;99.90;;;;;;2062440;28;20232;-70
2024/02/28 04:37:36;;;;;;;18.27;10.70;;;5.80;99.90;;;;;;2054023;28;20297;-71
2024/02/28 04:38:36;;;;;;;14.68;9.85;;;5.80;99.90;;;;;;2052800;28;20316;-70
2024/02/28 04:39:37;;;;;;;17.50;9.60;;;5.80;99.90;;;;;;2053624;28;20356;-70
2024/02/28 04:40:38;;;;;;;16.70;9.95;;;5.80;99.90;;;;;;2051008;28;20370;-69
2024/02/28 04:41:39;;;;;;;19.23;9.57;;;5.90;99.90;;;;;;2061596;28;20257;-72
2024/02/28 04:42:39;;;;;;;18.80;10.93;;;5.90;99.90;;;;;;2049188;28;20625;-71
2024/02/28 04:43:40;;;;;;;16.10;9.53;;;5.90;99.90;;;;;;2047562;28;20231;-71
2024/02/28 04:44:41;;;;;;;17.03;10.47;;;5.80;99.90;;;;;;2055670;28;20313;-70
2024/02/28 04:45:41;;;;;;;20.23;11.20;;;5.80;99.90;;;;;;2046469;28;20238;-71
2024/02/28 04:46:42;;;;;;;13.57;9.23;;;5.80;99.90;;;;;;2054302;28;20218;-70
2024/02/28 04:47:43;;;;;;;15.67;10.47;;;5.70;99.90;;;;;;2047883;28;20240;-71
2024/02/28 04:48:43;;;;;;;15.53;9.30;;;5.80;99.90;;;;;;2049617;28;20788;-71
2024/02/28 04:49:44;;;;;;;19.70;11.77;;;5.80;99.90;;;;;;2051200;28;20235;-70
2024/02/28 04:50:45;;;;;;;17.57;9.73;;;5.80;99.90;;;;;;2059702;28;20986;-70
2024/02/28 04:51:46;;;;;;;18.83;11.00;;;5.80;99.90;;;;;;2062136;28;20285;-70
2024/02/28 04:52:46;;;;;;;20.87;12.63;;;5.80;99.90;;;;;;2053897;28;20255;-70
2024/02/28 04:53:47;;;;;;;17.20;11.00;;;5.80;99.90;;;;;;2054001;28;20258;-70
2024/02/28 04:54:48;;;;;;;16.27;10.57;;;5.80;99.90;;;;;;2061501;28;20261;-70
2024/02/28 04:55:48;;;;;;;17.93;11.03;;;5.80;99.90;;;;;;2053809;28;20230;-70
2024/02/28 04:56:51;;;;;;;19.53;11.50;;;5.80;99.90;;;;;;2050912;28;20638;-70
2024/02/28 04:57:51;;;;;;;16.02;10.55;;;5.90;99.90;;;;;;2049908;28;20295;-70
2024/02/28 04:58:52;;;;;;;17.97;10.67;;;6.00;99.90;;;;;;2054652;28;20274;-70
2024/02/28 04:59:53;;;;;;;21.00;11.67;;;6.00;99.90;;;;;;2058367;28;20270;-70
2024/02/28 05:00:54;;;;;;;17.55;10.32;;;5.90;99.90;;;;;;2052806;28;20187;-70
2024/02/28 05:01:54;;;;;;;18.03;11.23;;;5.80;99.90;;;;;;2045347;28;20184;-69
2024/02/28 05:02:55;;;;;;;20.67;12.40;;;5.80;99.90;;;;;;2037137;29;20240;-71
2024/02/28 05:03:56;;;;;;;15.63;10.17;;;5.80;99.90;;;;;;2052515;28;20233;-71
2024/02/28 05:04:58;;;;;;;24.75;10.98;;;5.70;99.90;;;;;;2041887;28;20183;-71
2024/02/28 05:05:59;;;;;;;21.15;12.23;;;5.80;99.90;;;;;;2043933;28;20184;-71
2024/02/28 05:07:00;;;;;;;18.80;11.90;;;5.80;99.90;;;;;;2055020;28;20214;-71
2024/02/28 05:08:00;;;;;;;22.47;13.77;;;5.80;99.90;;;;;;2052685;28;20229;-70
2024/02/28 05:09:01;;;;;;;22.50;13.67;;;5.70;99.90;;;;;;2045910;28;20301;-70
2024/02/28 05:10:02;;;;;;;19.92;12.57;;;5.60;99.90;;;;;;2040955;28;20227;-70
2024/02/28 05:11:03;;;;;;;18.65;11.10;;;5.60;99.90;;;;;;2051632;28;20193;-71
2024/02/28 05:12:04;;;;;;;21.23;13.57;;;5.60;99.90;;;;;;2048857;28;20589;-71
2024/02/28 05:13:05;;;;;;;21.87;12.67;;;5.50;99.90;;;;;;2050478;28;20191;-70
2024/02/28 05:14:05;;;;;;;22.87;11.70;;;5.50;99.90;;;;;;2058521;28;20186;-71